sensor_id;sensor_type;location;lat;lon;timestamp;temperature;humidity
47226;DHT22;32965;64.142;-21.912;2022-11-25T00:01:11;10.40;64.60
47226;DHT22;32965;64.142;-21.912;2022-11-25T00:03:38;10.40;64.40
47226;DHT22;32965;64.142;-21.912;2022-11-25T00:06:25;10.40;64.30
47226;DHT22;32965;64.142;-21.912;2022-11-25T00:08:56;10.40;64.00
47226;DHT22;32965;64.142;-21.912;2022-11-25T00:11:22;10.30;63.80
47226;DHT22;32965;64.142;-21.912;2022-11-25T00:13:48;10.40;63.70
47226;DHT22;32965;64.142;-21.912;2022-11-25T00:16:17;10.40;63.40
47226;DHT22;32965;64.142;-21.912;2022-11-25T00:18:48;10.40;63.20
47226;DHT22;32965;64.142;-21.912;2022-11-25T00:21:16;10.40;63.10
47226;DHT22;32965;64.142;-21.912;2022-11-25T00:23:42;10.40;62.90
47226;DHT22;32965;64.142;-21.912;2022-11-25T00:26:15;10.40;62.80
47226;DHT22;32965;64.142;-21.912;2022-11-25T00:28:45;10.50;62.60
47226;DHT22;32965;64.142;-21.912;2022-11-25T00:33:39;10.50;62.40
47226;DHT22;32965;64.142;-21.912;2022-11-25T00:36:06;10.50;62.40
47226;DHT22;32965;64.142;-21.912;2022-11-25T00:38:34;10.60;62.40
47226;DHT22;32965;64.142;-21.912;2022-11-25T00:41:00;10.50;62.50
47226;DHT22;32965;64.142;-21.912;2022-11-25T00:43:44;10.50;62.70
47226;DHT22;32965;64.142;-21.912;2022-11-25T00:46:28;10.50;63.00
47226;DHT22;32965;64.142;-21.912;2022-11-25T00:48:54;10.50;63.30
47226;DHT22;32965;64.142;-21.912;2022-11-25T00:51:19;10.50;63.50
47226;DHT22;32965;64.142;-21.912;2022-11-25T00:53:45;10.50;63.80
47226;DHT22;32965;64.142;-21.912;2022-11-25T00:56:11;10.50;64.10
47226;DHT22;32965;64.142;-21.912;2022-11-25T00:58:41;10.50;64.20
47226;DHT22;32965;64.142;-21.912;2022-11-25T01:01:07;10.50;64.40
47226;DHT22;32965;64.142;-21.912;2022-11-25T01:03:33;10.50;64.50
47226;DHT22;32965;64.142;-21.912;2022-11-25T01:06:08;10.50;64.70
47226;DHT22;32965;64.142;-21.912;2022-11-25T01:08:36;10.40;64.80
47226;DHT22;32965;64.142;-21.912;2022-11-25T01:11:05;10.40;65.00
47226;DHT22;32965;64.142;-21.912;2022-11-25T01:13:32;10.40;65.10
47226;DHT22;32965;64.142;-21.912;2022-11-25T01:16:03;10.40;65.30
47226;DHT22;32965;64.142;-21.912;2022-11-25T01:18:30;10.40;65.50
47226;DHT22;32965;64.142;-21.912;2022-11-25T01:21:04;10.40;65.60
47226;DHT22;32965;64.142;-21.912;2022-11-25T01:23:30;10.40;65.60
47226;DHT22;32965;64.142;-21.912;2022-11-25T01:25:56;10.40;65.70
47226;DHT22;32965;64.142;-21.912;2022-11-25T01:28:22;10.40;65.70
47226;DHT22;32965;64.142;-21.912;2022-11-25T01:30:58;10.40;65.70
47226;DHT22;32965;64.142;-21.912;2022-11-25T01:33:24;10.40;65.70
47226;DHT22;32965;64.142;-21.912;2022-11-25T01:35:50;10.30;65.80
47226;DHT22;32965;64.142;-21.912;2022-11-25T01:38:15;10.30;65.90
47226;DHT22;32965;64.142;-21.912;2022-11-25T01:40:41;10.30;65.90
47226;DHT22;32965;64.142;-21.912;2022-11-25T01:43:12;10.30;65.90
47226;DHT22;32965;64.142;-21.912;2022-11-25T01:45:39;10.30;65.90
47226;DHT22;32965;64.142;-21.912;2022-11-25T01:48:15;10.30;65.90
47226;DHT22;32965;64.142;-21.912;2022-11-25T01:50:45;10.30;65.90
47226;DHT22;32965;64.142;-21.912;2022-11-25T01:53:13;10.30;66.00
47226;DHT22;32965;64.142;-21.912;2022-11-25T01:55:44;10.30;66.10
47226;DHT22;32965;64.142;-21.912;2022-11-25T01:58:20;10.20;66.10
47226;DHT22;32965;64.142;-21.912;2022-11-25T02:00:47;10.20;66.20
47226;DHT22;32965;64.142;-21.912;2022-11-25T02:03:25;10.20;66.10
47226;DHT22;32965;64.142;-21.912;2022-11-25T02:05:57;10.20;66.00
47226;DHT22;32965;64.142;-21.912;2022-11-25T02:08:25;10.20;66.00
47226;DHT22;32965;64.142;-21.912;2022-11-25T02:10:54;10.20;66.00
47226;DHT22;32965;64.142;-21.912;2022-11-25T02:13:21;10.20;65.90
47226;DHT22;32965;64.142;-21.912;2022-11-25T02:15:48;10.30;66.00
47226;DHT22;32965;64.142;-21.912;2022-11-25T02:18:14;10.20;65.90
47226;DHT22;32965;64.142;-21.912;2022-11-25T02:20:41;10.30;66.00
47226;DHT22;32965;64.142;-21.912;2022-11-25T02:23:38;10.30;66.00
47226;DHT22;32965;64.142;-21.912;2022-11-25T02:26:07;10.30;65.90
47226;DHT22;32965;64.142;-21.912;2022-11-25T02:28:33;10.20;66.10
47226;DHT22;32965;64.142;-21.912;2022-11-25T02:30:59;10.20;66.20
47226;DHT22;32965;64.142;-21.912;2022-11-25T02:33:25;10.30;66.40
47226;DHT22;32965;64.142;-21.912;2022-11-25T02:38:23;10.30;66.60
47226;DHT22;32965;64.142;-21.912;2022-11-25T02:41:05;10.30;66.80
47226;DHT22;32965;64.142;-21.912;2022-11-25T02:43:32;10.30;67.00
47226;DHT22;32965;64.142;-21.912;2022-11-25T02:46:12;10.30;67.20
47226;DHT22;32965;64.142;-21.912;2022-11-25T02:48:39;10.30;67.40
47226;DHT22;32965;64.142;-21.912;2022-11-25T02:51:07;10.30;67.60
47226;DHT22;32965;64.142;-21.912;2022-11-25T02:53:33;10.30;67.60
47226;DHT22;32965;64.142;-21.912;2022-11-25T02:55:59;10.30;67.80
47226;DHT22;32965;64.142;-21.912;2022-11-25T02:58:26;10.30;67.90
47226;DHT22;32965;64.142;-21.912;2022-11-25T03:00:51;10.30;68.10
47226;DHT22;32965;64.142;-21.912;2022-11-25T03:03:17;10.30;68.20
47226;DHT22;32965;64.142;-21.912;2022-11-25T03:05:43;10.30;68.30
47226;DHT22;32965;64.142;-21.912;2022-11-25T03:08:10;10.30;68.40
47226;DHT22;32965;64.142;-21.912;2022-11-25T03:10:36;10.30;68.50
47226;DHT22;32965;64.142;-21.912;2022-11-25T03:13:03;10.30;68.50
47226;DHT22;32965;64.142;-21.912;2022-11-25T03:15:29;10.30;68.40
47226;DHT22;32965;64.142;-21.912;2022-11-25T03:17:56;10.20;68.20
47226;DHT22;32965;64.142;-21.912;2022-11-25T03:20:22;10.20;68.00
47226;DHT22;32965;64.142;-21.912;2022-11-25T03:22:48;10.30;67.70
47226;DHT22;32965;64.142;-21.912;2022-11-25T03:25:14;10.30;67.50
47226;DHT22;32965;64.142;-21.912;2022-11-25T03:27:41;10.30;67.30
47226;DHT22;32965;64.142;-21.912;2022-11-25T03:30:10;10.20;67.10
47226;DHT22;32965;64.142;-21.912;2022-11-25T03:32:36;10.20;66.90
47226;DHT22;32965;64.142;-21.912;2022-11-25T03:35:01;10.20;66.90
47226;DHT22;32965;64.142;-21.912;2022-11-25T03:37:27;10.20;66.70
47226;DHT22;32965;64.142;-21.912;2022-11-25T03:39:53;10.20;66.50
47226;DHT22;32965;64.142;-21.912;2022-11-25T03:42:19;10.20;66.40
47226;DHT22;32965;64.142;-21.912;2022-11-25T03:44:44;10.20;66.30
47226;DHT22;32965;64.142;-21.912;2022-11-25T03:47:10;10.20;66.30
47226;DHT22;32965;64.142;-21.912;2022-11-25T03:49:36;10.20;66.10
47226;DHT22;32965;64.142;-21.912;2022-11-25T03:52:01;10.20;66.00
47226;DHT22;32965;64.142;-21.912;2022-11-25T03:54:27;10.20;66.00
47226;DHT22;32965;64.142;-21.912;2022-11-25T03:56:53;10.20;65.90
47226;DHT22;32965;64.142;-21.912;2022-11-25T03:59:19;10.20;65.90
47226;DHT22;32965;64.142;-21.912;2022-11-25T04:01:44;10.20;65.90
47226;DHT22;32965;64.142;-21.912;2022-11-25T04:04:10;10.20;65.90
47226;DHT22;32965;64.142;-21.912;2022-11-25T04:06:36;10.20;65.90
47226;DHT22;32965;64.142;-21.912;2022-11-25T04:09:08;10.10;65.80
47226;DHT22;32965;64.142;-21.912;2022-11-25T04:11:34;10.20;65.90
47226;DHT22;32965;64.142;-21.912;2022-11-25T04:14:18;10.20;66.00
47226;DHT22;32965;64.142;-21.912;2022-11-25T04:16:43;10.20;66.10
47226;DHT22;32965;64.142;-21.912;2022-11-25T04:19:09;10.20;66.10
47226;DHT22;32965;64.142;-21.912;2022-11-25T04:21:35;10.20;66.30
47226;DHT22;32965;64.142;-21.912;2022-11-25T04:24:01;10.20;66.40
47226;DHT22;32965;64.142;-21.912;2022-11-25T04:26:27;10.20;66.60
47226;DHT22;32965;64.142;-21.912;2022-11-25T04:28:53;10.20;66.80
47226;DHT22;32965;64.142;-21.912;2022-11-25T04:31:19;10.20;66.90
47226;DHT22;32965;64.142;-21.912;2022-11-25T04:33:45;10.20;67.10
47226;DHT22;32965;64.142;-21.912;2022-11-25T04:36:10;10.20;67.20
47226;DHT22;32965;64.142;-21.912;2022-11-25T04:38:36;10.20;67.40
47226;DHT22;32965;64.142;-21.912;2022-11-25T04:41:02;10.20;67.60
47226;DHT22;32965;64.142;-21.912;2022-11-25T04:43:28;10.20;67.60
47226;DHT22;32965;64.142;-21.912;2022-11-25T04:45:54;10.20;67.70
47226;DHT22;32965;64.142;-21.912;2022-11-25T04:48:20;10.10;67.70
47226;DHT22;32965;64.142;-21.912;2022-11-25T04:50:45;10.10;67.80
47226;DHT22;32965;64.142;-21.912;2022-11-25T04:53:11;10.10;67.80
47226;DHT22;32965;64.142;-21.912;2022-11-25T04:55:37;10.20;67.90
47226;DHT22;32965;64.142;-21.912;2022-11-25T04:58:03;10.20;67.90
47226;DHT22;32965;64.142;-21.912;2022-11-25T05:00:28;10.10;67.90
47226;DHT22;32965;64.142;-21.912;2022-11-25T05:02:54;10.10;68.00
47226;DHT22;32965;64.142;-21.912;2022-11-25T05:05:20;10.10;68.00
47226;DHT22;32965;64.142;-21.912;2022-11-25T05:07:46;10.10;68.50
47226;DHT22;32965;64.142;-21.912;2022-11-25T05:10:12;10.20;68.00
47226;DHT22;32965;64.142;-21.912;2022-11-25T05:12:38;10.10;67.80
47226;DHT22;32965;64.142;-21.912;2022-11-25T05:15:04;10.10;67.60
47226;DHT22;32965;64.142;-21.912;2022-11-25T05:17:31;10.10;67.40
47226;DHT22;32965;64.142;-21.912;2022-11-25T05:19:57;10.20;67.30
47226;DHT22;32965;64.142;-21.912;2022-11-25T05:22:25;10.20;67.00
47226;DHT22;32965;64.142;-21.912;2022-11-25T05:24:51;10.20;66.90
47226;DHT22;32965;64.142;-21.912;2022-11-25T05:27:17;10.10;66.70
47226;DHT22;32965;64.142;-21.912;2022-11-25T05:29:43;10.20;66.70
47226;DHT22;32965;64.142;-21.912;2022-11-25T05:32:09;10.20;66.70
47226;DHT22;32965;64.142;-21.912;2022-11-25T05:34:36;10.20;66.60
47226;DHT22;32965;64.142;-21.912;2022-11-25T05:37:02;10.20;66.40
47226;DHT22;32965;64.142;-21.912;2022-11-25T05:39:28;10.20;66.20
47226;DHT22;32965;64.142;-21.912;2022-11-25T05:41:54;10.10;66.00
47226;DHT22;32965;64.142;-21.912;2022-11-25T05:44:19;10.20;65.90
47226;DHT22;32965;64.142;-21.912;2022-11-25T05:46:46;10.20;65.70
47226;DHT22;32965;64.142;-21.912;2022-11-25T05:49:14;10.20;65.50
47226;DHT22;32965;64.142;-21.912;2022-11-25T05:51:40;10.10;65.40
47226;DHT22;32965;64.142;-21.912;2022-11-25T05:54:06;10.10;65.40
47226;DHT22;32965;64.142;-21.912;2022-11-25T05:56:32;10.10;65.40
47226;DHT22;32965;64.142;-21.912;2022-11-25T05:58:58;10.10;65.40
47226;DHT22;32965;64.142;-21.912;2022-11-25T06:01:24;10.10;65.50
47226;DHT22;32965;64.142;-21.912;2022-11-25T06:03:50;10.10;65.60
47226;DHT22;32965;64.142;-21.912;2022-11-25T06:06:16;10.10;65.50
47226;DHT22;32965;64.142;-21.912;2022-11-25T06:08:42;10.00;65.50
47226;DHT22;32965;64.142;-21.912;2022-11-25T06:11:10;10.00;65.50
47226;DHT22;32965;64.142;-21.912;2022-11-25T06:13:37;10.00;65.40
47226;DHT22;32965;64.142;-21.912;2022-11-25T06:16:29;9.90;65.30
47226;DHT22;32965;64.142;-21.912;2022-11-25T06:18:54;10.00;65.20
47226;DHT22;32965;64.142;-21.912;2022-11-25T06:21:20;9.90;65.30
47226;DHT22;32965;64.142;-21.912;2022-11-25T06:23:46;9.90;65.30
47226;DHT22;32965;64.142;-21.912;2022-11-25T06:26:20;9.80;65.20
47226;DHT22;32965;64.142;-21.912;2022-11-25T06:28:47;9.80;65.20
47226;DHT22;32965;64.142;-21.912;2022-11-25T06:31:17;9.80;65.30
47226;DHT22;32965;64.142;-21.912;2022-11-25T06:33:47;9.80;65.30
47226;DHT22;32965;64.142;-21.912;2022-11-25T06:36:13;9.70;65.40
47226;DHT22;32965;64.142;-21.912;2022-11-25T06:38:46;9.70;65.40
47226;DHT22;32965;64.142;-21.912;2022-11-25T06:41:12;9.70;65.50
47226;DHT22;32965;64.142;-21.912;2022-11-25T06:43:38;9.70;65.60
47226;DHT22;32965;64.142;-21.912;2022-11-25T06:46:12;9.60;65.60
47226;DHT22;32965;64.142;-21.912;2022-11-25T06:48:38;9.60;65.70
47226;DHT22;32965;64.142;-21.912;2022-11-25T06:51:07;9.60;65.80
47226;DHT22;32965;64.142;-21.912;2022-11-25T06:53:35;9.50;65.80
47226;DHT22;32965;64.142;-21.912;2022-11-25T06:56:15;9.60;65.90
47226;DHT22;32965;64.142;-21.912;2022-11-25T06:58:42;9.50;65.90
47226;DHT22;32965;64.142;-21.912;2022-11-25T07:01:20;9.60;66.00
47226;DHT22;32965;64.142;-21.912;2022-11-25T07:03:49;9.50;65.90
47226;DHT22;32965;64.142;-21.912;2022-11-25T07:06:16;9.50;65.90
47226;DHT22;32965;64.142;-21.912;2022-11-25T07:08:43;9.50;65.90
47226;DHT22;32965;64.142;-21.912;2022-11-25T07:11:21;9.50;65.80
47226;DHT22;32965;64.142;-21.912;2022-11-25T07:13:51;9.50;65.70
47226;DHT22;32965;64.142;-21.912;2022-11-25T07:16:17;9.50;65.80
47226;DHT22;32965;64.142;-21.912;2022-11-25T07:18:43;9.50;65.70
47226;DHT22;32965;64.142;-21.912;2022-11-25T07:21:10;9.50;65.70
47226;DHT22;32965;64.142;-21.912;2022-11-25T07:23:37;9.50;65.70
47226;DHT22;32965;64.142;-21.912;2022-11-25T07:26:12;9.50;65.70
47226;DHT22;32965;64.142;-21.912;2022-11-25T07:28:38;9.50;65.70
47226;DHT22;32965;64.142;-21.912;2022-11-25T07:31:22;9.50;65.80
47226;DHT22;32965;64.142;-21.912;2022-11-25T07:33:57;9.50;65.80
47226;DHT22;32965;64.142;-21.912;2022-11-25T07:36:23;9.50;65.90
47226;DHT22;32965;64.142;-21.912;2022-11-25T07:38:49;9.50;66.00
47226;DHT22;32965;64.142;-21.912;2022-11-25T07:41:21;9.50;66.00
47226;DHT22;32965;64.142;-21.912;2022-11-25T07:43:51;9.50;66.00
47226;DHT22;32965;64.142;-21.912;2022-11-25T07:46:21;9.50;66.10
47226;DHT22;32965;64.142;-21.912;2022-11-25T07:48:48;9.50;66.10
47226;DHT22;32965;64.142;-21.912;2022-11-25T07:51:19;9.50;66.20
47226;DHT22;32965;64.142;-21.912;2022-11-25T07:53:45;9.50;66.20
47226;DHT22;32965;64.142;-21.912;2022-11-25T07:56:12;9.50;66.30
47226;DHT22;32965;64.142;-21.912;2022-11-25T07:58:39;9.50;66.30
47226;DHT22;32965;64.142;-21.912;2022-11-25T08:01:06;9.50;66.30
47226;DHT22;32965;64.142;-21.912;2022-11-25T08:03:34;9.50;66.40
47226;DHT22;32965;64.142;-21.912;2022-11-25T08:06:01;9.50;66.50
47226;DHT22;32965;64.142;-21.912;2022-11-25T08:08:28;9.50;66.60
47226;DHT22;32965;64.142;-21.912;2022-11-25T08:10:53;9.50;66.60
47226;DHT22;32965;64.142;-21.912;2022-11-25T08:13:19;9.50;66.60
47226;DHT22;32965;64.142;-21.912;2022-11-25T08:15:45;9.50;66.70
47226;DHT22;32965;64.142;-21.912;2022-11-25T08:18:10;9.50;66.70
47226;DHT22;32965;64.142;-21.912;2022-11-25T08:20:36;9.50;66.70
47226;DHT22;32965;64.142;-21.912;2022-11-25T08:23:02;9.50;66.70
47226;DHT22;32965;64.142;-21.912;2022-11-25T08:25:28;9.50;66.80
47226;DHT22;32965;64.142;-21.912;2022-11-25T08:27:59;9.40;66.70
47226;DHT22;32965;64.142;-21.912;2022-11-25T08:30:25;9.40;66.80
47226;DHT22;32965;64.142;-21.912;2022-11-25T08:32:51;9.40;66.80
47226;DHT22;32965;64.142;-21.912;2022-11-25T08:35:18;9.40;66.80
47226;DHT22;32965;64.142;-21.912;2022-11-25T08:37:44;9.40;66.90
47226;DHT22;32965;64.142;-21.912;2022-11-25T08:40:11;9.40;66.90
47226;DHT22;32965;64.142;-21.912;2022-11-25T08:42:37;9.30;66.80
47226;DHT22;32965;64.142;-21.912;2022-11-25T08:45:05;9.30;66.90
47226;DHT22;32965;64.142;-21.912;2022-11-25T08:47:31;9.30;66.90
47226;DHT22;32965;64.142;-21.912;2022-11-25T08:49:57;9.30;67.00
47226;DHT22;32965;64.142;-21.912;2022-11-25T08:52:23;9.30;67.10
47226;DHT22;32965;64.142;-21.912;2022-11-25T08:54:49;9.30;67.10
47226;DHT22;32965;64.142;-21.912;2022-11-25T08:57:15;9.30;67.10
47226;DHT22;32965;64.142;-21.912;2022-11-25T08:59:41;9.30;67.10
47226;DHT22;32965;64.142;-21.912;2022-11-25T09:02:08;9.30;67.10
47226;DHT22;32965;64.142;-21.912;2022-11-25T09:04:34;9.30;67.10
47226;DHT22;32965;64.142;-21.912;2022-11-25T09:07:00;9.20;66.90
47226;DHT22;32965;64.142;-21.912;2022-11-25T09:09:28;9.20;66.70
47226;DHT22;32965;64.142;-21.912;2022-11-25T09:11:53;9.20;66.40
47226;DHT22;32965;64.142;-21.912;2022-11-25T09:14:19;9.20;66.20
47226;DHT22;32965;64.142;-21.912;2022-11-25T09:16:45;9.20;66.00
47226;DHT22;32965;64.142;-21.912;2022-11-25T09:19:10;9.20;66.00
47226;DHT22;32965;64.142;-21.912;2022-11-25T09:21:36;9.20;65.80
47226;DHT22;32965;64.142;-21.912;2022-11-25T09:24:02;9.10;65.70
47226;DHT22;32965;64.142;-21.912;2022-11-25T09:26:30;9.10;65.60
47226;DHT22;32965;64.142;-21.912;2022-11-25T09:28:59;9.10;65.50
47226;DHT22;32965;64.142;-21.912;2022-11-25T09:31:25;9.20;65.50
47226;DHT22;32965;64.142;-21.912;2022-11-25T09:33:51;9.10;65.40
47226;DHT22;32965;64.142;-21.912;2022-11-25T09:36:18;9.20;65.40
47226;DHT22;32965;64.142;-21.912;2022-11-25T09:38:44;9.20;65.30
47226;DHT22;32965;64.142;-21.912;2022-11-25T09:47:24;9.10;65.10
47226;DHT22;32965;64.142;-21.912;2022-11-25T09:55:20;9.20;65.00
47226;DHT22;32965;64.142;-21.912;2022-11-25T09:58:19;9.10;64.90
47226;DHT22;32965;64.142;-21.912;2022-11-25T10:00:50;9.20;64.80
47226;DHT22;32965;64.142;-21.912;2022-11-25T10:03:42;9.10;64.70
47226;DHT22;32965;64.142;-21.912;2022-11-25T10:08:47;9.20;64.60
47226;DHT22;32965;64.142;-21.912;2022-11-25T10:19:20;9.20;64.20
47226;DHT22;32965;64.142;-21.912;2022-11-25T10:21:48;9.20;64.10
47226;DHT22;32965;64.142;-21.912;2022-11-25T10:24:15;9.20;64.10
47226;DHT22;32965;64.142;-21.912;2022-11-25T10:26:56;9.20;64.40
47226;DHT22;32965;64.142;-21.912;2022-11-25T10:29:26;9.20;63.80
47226;DHT22;32965;64.142;-21.912;2022-11-25T10:31:59;9.30;63.90
47226;DHT22;32965;64.142;-21.912;2022-11-25T10:36:58;9.20;63.80
47226;DHT22;32965;64.142;-21.912;2022-11-25T10:39:28;9.30;63.80
47226;DHT22;32965;64.142;-21.912;2022-11-25T10:44:37;9.30;63.80
47226;DHT22;32965;64.142;-21.912;2022-11-25T10:53:03;9.30;63.80
47226;DHT22;32965;64.142;-21.912;2022-11-25T10:55:34;9.30;63.90
47226;DHT22;32965;64.142;-21.912;2022-11-25T11:01:01;9.30;63.90
47226;DHT22;32965;64.142;-21.912;2022-11-25T11:03:27;9.30;64.00
47226;DHT22;32965;64.142;-21.912;2022-11-25T11:05:53;9.30;64.00
47226;DHT22;32965;64.142;-21.912;2022-11-25T11:08:21;9.30;64.00
47226;DHT22;32965;64.142;-21.912;2022-11-25T11:11:17;9.30;64.10
47226;DHT22;32965;64.142;-21.912;2022-11-25T11:13:43;9.30;64.00
47226;DHT22;32965;64.142;-21.912;2022-11-25T11:16:34;9.30;64.10
47226;DHT22;32965;64.142;-21.912;2022-11-25T11:19:01;9.30;64.10
47226;DHT22;32965;64.142;-21.912;2022-11-25T11:21:36;9.30;64.20
47226;DHT22;32965;64.142;-21.912;2022-11-25T11:27:01;9.40;64.30
47226;DHT22;32965;64.142;-21.912;2022-11-25T11:29:27;9.30;64.30
47226;DHT22;32965;64.142;-21.912;2022-11-25T11:31:58;9.30;64.40
47226;DHT22;32965;64.142;-21.912;2022-11-25T11:37:42;9.40;64.50
47226;DHT22;32965;64.142;-21.912;2022-11-25T11:50:47;9.40;65.80
47226;DHT22;32965;64.142;-21.912;2022-11-25T11:56:20;9.40;65.90
47226;DHT22;32965;64.142;-21.912;2022-11-25T12:04:14;9.40;65.90
47226;DHT22;32965;64.142;-21.912;2022-11-25T12:06:52;9.40;66.20
47226;DHT22;32965;64.142;-21.912;2022-11-25T12:09:22;9.40;66.00
47226;DHT22;32965;64.142;-21.912;2022-11-25T12:11:56;9.40;66.10
47226;DHT22;32965;64.142;-21.912;2022-11-25T12:14:45;9.40;66.00
47226;DHT22;32965;64.142;-21.912;2022-11-25T12:17:26;9.40;65.90
47226;DHT22;32965;64.142;-21.912;2022-11-25T12:22:36;9.40;66.00
47226;DHT22;32965;64.142;-21.912;2022-11-25T12:30:15;9.40;65.80
47226;DHT22;32965;64.142;-21.912;2022-11-25T12:35:37;9.30;66.00
47226;DHT22;32965;64.142;-21.912;2022-11-25T12:43:59;9.30;66.40
47226;DHT22;32965;64.142;-21.912;2022-11-25T12:48:59;9.30;67.00
47226;DHT22;32965;64.142;-21.912;2022-11-25T13:16:44;9.20;67.80
47226;DHT22;32965;64.142;-21.912;2022-11-25T13:19:10;9.20;67.90
47226;DHT22;32965;64.142;-21.912;2022-11-25T13:26:59;9.20;68.40
47226;DHT22;32965;64.142;-21.912;2022-11-25T13:31:59;9.20;68.50
47226;DHT22;32965;64.142;-21.912;2022-11-25T13:34:31;9.20;68.30
47226;DHT22;32965;64.142;-21.912;2022-11-25T13:36:59;9.20;68.20
47226;DHT22;32965;64.142;-21.912;2022-11-25T13:39:33;9.20;68.10
47226;DHT22;32965;64.142;-21.912;2022-11-25T13:44:52;9.20;67.80
47226;DHT22;32965;64.142;-21.912;2022-11-25T13:49:55;9.20;67.70
47226;DHT22;32965;64.142;-21.912;2022-11-25T13:52:45;9.20;67.60
47226;DHT22;32965;64.142;-21.912;2022-11-25T13:57:46;9.10;67.20
47226;DHT22;32965;64.142;-21.912;2022-11-25T14:02:46;9.10;66.80
47226;DHT22;32965;64.142;-21.912;2022-11-25T14:26:51;9.10;65.90
47226;DHT22;32965;64.142;-21.912;2022-11-25T14:29:37;9.10;65.80
47226;DHT22;32965;64.142;-21.912;2022-11-25T14:35:01;9.10;65.70
47226;DHT22;32965;64.142;-21.912;2022-11-25T14:42:56;9.10;65.70
47226;DHT22;32965;64.142;-21.912;2022-11-25T14:45:24;9.00;65.70
47226;DHT22;32965;64.142;-21.912;2022-11-25T14:47:50;9.00;65.60
47226;DHT22;32965;64.142;-21.912;2022-11-25T14:50:16;9.10;65.60
47226;DHT22;32965;64.142;-21.912;2022-11-25T14:52:43;9.00;65.60
47226;DHT22;32965;64.142;-21.912;2022-11-25T14:55:11;9.00;65.60
47226;DHT22;32965;64.142;-21.912;2022-11-25T14:57:42;9.00;65.60
47226;DHT22;32965;64.142;-21.912;2022-11-25T15:00:11;9.00;65.50
47226;DHT22;32965;64.142;-21.912;2022-11-25T15:02:41;9.00;65.70
47226;DHT22;32965;64.142;-21.912;2022-11-25T15:07:32;8.90;65.90
47226;DHT22;32965;64.142;-21.912;2022-11-25T15:09:58;8.90;66.00
47226;DHT22;32965;64.142;-21.912;2022-11-25T15:12:30;8.90;66.00
47226;DHT22;32965;64.142;-21.912;2022-11-25T15:14:56;8.90;66.00
47226;DHT22;32965;64.142;-21.912;2022-11-25T15:17:29;8.90;66.10
47226;DHT22;32965;64.142;-21.912;2022-11-25T15:19:58;8.90;66.10
47226;DHT22;32965;64.142;-21.912;2022-11-25T15:22:24;8.90;66.10
47226;DHT22;32965;64.142;-21.912;2022-11-25T15:24:51;8.80;66.10
47226;DHT22;32965;64.142;-21.912;2022-11-25T15:27:27;8.80;66.60
47226;DHT22;32965;64.142;-21.912;2022-11-25T15:29:54;8.80;66.10
47226;DHT22;32965;64.142;-21.912;2022-11-25T15:32:29;8.80;66.20
47226;DHT22;32965;64.142;-21.912;2022-11-25T15:34:58;8.90;66.20
47226;DHT22;32965;64.142;-21.912;2022-11-25T15:37:24;8.80;66.20
47226;DHT22;32965;64.142;-21.912;2022-11-25T15:42:55;8.90;66.20
47226;DHT22;32965;64.142;-21.912;2022-11-25T15:45:21;8.90;66.40
47226;DHT22;32965;64.142;-21.912;2022-11-25T15:47:47;8.90;66.50
47226;DHT22;32965;64.142;-21.912;2022-11-25T15:50:19;8.90;66.50
47226;DHT22;32965;64.142;-21.912;2022-11-25T15:52:50;8.90;66.50
47226;DHT22;32965;64.142;-21.912;2022-11-25T15:55:34;8.90;66.60
47226;DHT22;32965;64.142;-21.912;2022-11-25T15:58:09;8.90;66.70
47226;DHT22;32965;64.142;-21.912;2022-11-25T16:00:36;8.80;66.80
47226;DHT22;32965;64.142;-21.912;2022-11-25T16:03:02;8.80;66.80
47226;DHT22;32965;64.142;-21.912;2022-11-25T16:05:34;8.80;67.00
47226;DHT22;32965;64.142;-21.912;2022-11-25T16:21:13;8.60;67.80
47226;DHT22;32965;64.142;-21.912;2022-11-25T16:26:59;8.60;67.90
47226;DHT22;32965;64.142;-21.912;2022-11-25T16:31:58;8.50;68.30
47226;DHT22;32965;64.142;-21.912;2022-11-25T16:34:24;8.50;68.40
47226;DHT22;32965;64.142;-21.912;2022-11-25T16:36:51;8.50;68.50
47226;DHT22;32965;64.142;-21.912;2022-11-25T16:39:18;8.50;68.60
47226;DHT22;32965;64.142;-21.912;2022-11-25T16:41:54;8.40;68.70
47226;DHT22;32965;64.142;-21.912;2022-11-25T16:44:22;8.40;68.70
47226;DHT22;32965;64.142;-21.912;2022-11-25T16:46:48;8.40;68.90
47226;DHT22;32965;64.142;-21.912;2022-11-25T16:49:16;8.40;69.00
47226;DHT22;32965;64.142;-21.912;2022-11-25T16:51:43;8.40;69.10
47226;DHT22;32965;64.142;-21.912;2022-11-25T16:54:09;8.30;69.10
47226;DHT22;32965;64.142;-21.912;2022-11-25T16:56:38;8.30;69.20
47226;DHT22;32965;64.142;-21.912;2022-11-25T16:59:05;8.30;69.30
47226;DHT22;32965;64.142;-21.912;2022-11-25T17:01:32;8.30;69.40
47226;DHT22;32965;64.142;-21.912;2022-11-25T17:03:58;8.30;69.50
47226;DHT22;32965;64.142;-21.912;2022-11-25T17:06:27;8.20;69.50
47226;DHT22;32965;64.142;-21.912;2022-11-25T17:08:53;8.20;69.60
47226;DHT22;32965;64.142;-21.912;2022-11-25T17:11:31;8.20;69.60
47226;DHT22;32965;64.142;-21.912;2022-11-25T17:14:02;8.20;69.60
47226;DHT22;32965;64.142;-21.912;2022-11-25T17:16:28;8.20;69.70
47226;DHT22;32965;64.142;-21.912;2022-11-25T17:18:56;8.20;69.70
47226;DHT22;32965;64.142;-21.912;2022-11-25T17:21:23;8.20;69.80
47226;DHT22;32965;64.142;-21.912;2022-11-25T17:24:19;8.10;69.80
47226;DHT22;32965;64.142;-21.912;2022-11-25T17:26:50;8.20;69.80
47226;DHT22;32965;64.142;-21.912;2022-11-25T17:29:20;8.10;69.90
47226;DHT22;32965;64.142;-21.912;2022-11-25T17:31:46;8.00;69.90
47226;DHT22;32965;64.142;-21.912;2022-11-25T17:34:14;8.10;69.90
47226;DHT22;32965;64.142;-21.912;2022-11-25T17:36:41;8.10;70.00
47226;DHT22;32965;64.142;-21.912;2022-11-25T17:39:11;8.00;69.90
47226;DHT22;32965;64.142;-21.912;2022-11-25T17:41:42;8.00;70.00
47226;DHT22;32965;64.142;-21.912;2022-11-25T17:44:24;8.00;70.00
47226;DHT22;32965;64.142;-21.912;2022-11-25T17:46:50;8.00;70.00
47226;DHT22;32965;64.142;-21.912;2022-11-25T17:49:16;8.00;70.10
47226;DHT22;32965;64.142;-21.912;2022-11-25T17:51:42;8.00;70.10
47226;DHT22;32965;64.142;-21.912;2022-11-25T17:54:08;7.90;70.10
47226;DHT22;32965;64.142;-21.912;2022-11-25T17:56:34;7.90;70.10
47226;DHT22;32965;64.142;-21.912;2022-11-25T17:59:03;7.90;70.10
47226;DHT22;32965;64.142;-21.912;2022-11-25T18:01:29;7.90;70.10
47226;DHT22;32965;64.142;-21.912;2022-11-25T18:03:55;7.90;70.20
47226;DHT22;32965;64.142;-21.912;2022-11-25T18:06:21;7.90;70.20
47226;DHT22;32965;64.142;-21.912;2022-11-25T18:08:47;7.90;70.30
47226;DHT22;32965;64.142;-21.912;2022-11-25T18:11:15;7.90;70.30
47226;DHT22;32965;64.142;-21.912;2022-11-25T18:13:44;7.90;70.30
47226;DHT22;32965;64.142;-21.912;2022-11-25T18:16:11;7.90;70.30
47226;DHT22;32965;64.142;-21.912;2022-11-25T18:18:37;7.90;70.30
47226;DHT22;32965;64.142;-21.912;2022-11-25T18:21:02;7.90;70.30
47226;DHT22;32965;64.142;-21.912;2022-11-25T18:23:28;7.90;70.40